Time;durP1;ratioP1;P1;durP2;ratioP2;P2;SDS_P1;SDS_P2;PMS_P1;PMS_P2;Temp;Humidity;BMP_temperature;BMP_pressure;BME280_temperature;BME280_humidity;BME280_pressure;Samples;Min_cycle;Max_cycle;Signal;HPM_P1;HPM_P2
2021/05/02 00:01:29;;;;;;;6.97;3.50;;;9.80;83.50;;;;;;5068111;28;20685;-71
2021/05/02 00:03:55;;;;;;;11.93;3.70;;;9.80;83.50;;;;;;5069466;28;20698;-73
2021/05/02 00:06:22;;;;;;;10.98;3.33;;;9.80;83.60;;;;;;5070477;28;20218;-71
2021/05/02 00:08:48;;;;;;;5.68;3.25;;;9.80;83.70;;;;;;5069148;28;20198;-73
2021/05/02 00:11:14;;;;;;;9.70;3.40;;;9.70;83.70;;;;;;5069203;28;20705;-71
2021/05/02 00:13:41;;;;;;;5.35;3.30;;;9.70;83.70;;;;;;5071852;28;20271;-73
2021/05/02 00:16:08;;;;;;;8.65;3.40;;;9.70;83.60;;;;;;5074109;28;20213;-70
2021/05/02 00:18:36;;;;;;;9.75;3.15;;;9.70;83.70;;;;;;5068412;28;20213;-73
2021/05/02 00:21:07;;;;;;;6.30;3.20;;;9.70;83.80;;;;;;5075507;28;20195;-72
2021/05/02 00:23:35;;;;;;;6.97;3.15;;;9.70;83.80;;;;;;5072049;28;20205;-72
2021/05/02 00:26:02;;;;;;;5.97;3.17;;;9.60;83.80;;;;;;5069844;28;20198;-72
2021/05/02 00:28:33;;;;;;;7.22;3.25;;;9.70;84.00;;;;;;5072741;28;20213;-71
2021/05/02 00:31:04;;;;;;;8.70;3.45;;;9.60;83.90;;;;;;5068592;28;20226;-72
2021/05/02 00:33:31;;;;;;;9.55;3.60;;;9.60;83.90;;;;;;5072748;28;20604;-73
2021/05/02 00:36:00;;;;;;;13.95;3.40;;;9.60;83.90;;;;;;5070911;28;20234;-72
2021/05/02 00:38:27;;;;;;;10.65;3.20;;;9.60;84.00;;;;;;5067388;28;20195;-71
2021/05/02 00:40:57;;;;;;;12.07;3.60;;;9.60;84.00;;;;;;5069365;28;20205;-71
2021/05/02 00:43:33;;;;;;;9.32;3.60;;;9.50;84.00;;;;;;5070288;28;20715;-71
2021/05/02 00:46:08;;;;;;;8.13;3.47;;;9.50;84.00;;;;;;5070864;28;20209;-71
2021/05/02 00:48:43;;;;;;;10.05;3.47;;;9.50;84.00;;;;;;5069916;28;20193;-71
2021/05/02 00:51:14;;;;;;;8.13;3.08;;;9.50;84.10;;;;;;5066971;28;20271;-72
2021/05/02 00:53:49;;;;;;;9.45;3.70;;;9.50;84.10;;;;;;5066910;28;20674;-71
2021/05/02 00:56:23;;;;;;;10.63;3.20;;;9.40;84.10;;;;;;5072802;28;20202;-72
2021/05/02 00:58:55;;;;;;;10.82;3.55;;;9.40;84.10;;;;;;5066805;28;20231;-71
2021/05/02 01:01:23;;;;;;;9.98;3.50;;;9.40;84.30;;;;;;5072584;28;20213;-71
2021/05/02 01:03:51;;;;;;;9.23;3.70;;;9.30;84.40;;;;;;5074454;28;20219;-71
2021/05/02 01:06:23;;;;;;;14.20;4.00;;;9.30;84.50;;;;;;5068648;28;20260;-72
2021/05/02 01:08:51;;;;;;;7.03;3.80;;;9.30;84.60;;;;;;5067635;28;20213;-70
2021/05/02 01:11:18;;;;;;;7.25;3.78;;;9.20;84.70;;;;;;5067124;28;20229;-73
2021/05/02 01:13:51;;;;;;;10.63;4.50;;;9.20;84.80;;;;;;5066503;28;20427;-73
2021/05/02 01:16:20;;;;;;;8.05;3.92;;;9.50;85.50;;;;;;5065921;28;20214;-72
2021/05/02 01:18:48;;;;;;;10.68;4.35;;;9.40;85.30;;;;;;5072198;28;20206;-72
2021/05/02 01:21:17;;;;;;;6.85;3.50;;;9.30;85.60;;;;;;5077351;28;20986;-74
2021/05/02 01:23:44;;;;;;;10.48;3.83;;;9.30;85.70;;;;;;5066754;28;20264;-70
2021/05/02 01:26:16;;;;;;;12.63;4.40;;;9.20;85.70;;;;;;5067890;28;20190;-72
2021/05/02 01:28:43;;;;;;;8.93;3.50;;;9.20;85.90;;;;;;5068535;28;20210;-71
2021/05/02 01:31:09;;;;;;;12.18;4.10;;;9.20;85.90;;;;;;5068551;28;20218;-73
2021/05/02 01:33:36;;;;;;;9.10;3.60;;;9.20;85.90;;;;;;5066722;28;20202;-73
2021/05/02 01:36:03;;;;;;;9.75;3.78;;;9.20;85.90;;;;;;5067902;28;20241;-71
2021/05/02 01:38:30;;;;;;;9.13;3.58;;;9.20;85.90;;;;;;5067324;28;20195;-73
2021/05/02 01:40:59;;;;;;;12.05;3.85;;;9.20;86.00;;;;;;5070900;28;20576;-72
2021/05/02 01:43:25;;;;;;;10.50;3.67;;;9.10;86.00;;;;;;5068793;28;20674;-72
2021/05/02 01:45:52;;;;;;;8.95;3.97;;;9.10;86.00;;;;;;5074245;28;20285;-72
2021/05/02 01:48:21;;;;;;;11.20;4.20;;;9.10;86.00;;;;;;5068827;28;20206;-72
2021/05/02 01:50:51;;;;;;;12.85;4.95;;;9.10;86.10;;;;;;5073382;28;20221;-73
2021/05/02 01:53:18;;;;;;;11.35;4.93;;;9.10;86.30;;;;;;5072804;28;20203;-72
2021/05/02 01:55:46;;;;;;;14.07;4.72;;;9.10;86.40;;;;;;5066488;28;20198;-71
2021/05/02 01:58:15;;;;;;;10.10;4.35;;;9.00;86.50;;;;;;5068365;28;20198;-71
2021/05/02 02:00:48;;;;;;;11.55;4.38;;;9.00;86.80;;;;;;5067263;28;20256;-72
2021/05/02 02:03:15;;;;;;;9.40;4.38;;;9.10;87.10;;;;;;5075126;28;20232;-72
2021/05/02 02:05:42;;;;;;;9.23;4.13;;;9.10;87.20;;;;;;5069283;28;20202;-72
2021/05/02 02:08:09;;;;;;;11.00;3.70;;;9.10;87.30;;;;;;5066706;28;20205;-72
2021/05/02 02:10:37;;;;;;;9.40;3.63;;;9.10;87.30;;;;;;5069046;28;20260;-72
2021/05/02 02:13:04;;;;;;;13.40;3.72;;;9.10;87.40;;;;;;5067022;28;20207;-72
2021/05/02 02:15:31;;;;;;;10.40;3.40;;;9.10;87.50;;;;;;5067603;28;20271;-72
2021/05/02 02:17:58;;;;;;;10.05;3.17;;;9.10;87.70;;;;;;5068671;28;20259;-73
2021/05/02 02:20:26;;;;;;;13.02;3.00;;;9.10;87.80;;;;;;5069996;28;20198;-72
2021/05/02 02:22:56;;;;;;;12.95;2.90;;;9.10;87.90;;;;;;5067207;28;20206;-72
2021/05/02 02:25:26;;;;;;;12.73;2.72;;;9.10;88.10;;;;;;5067940;28;20210;-72
2021/05/02 02:27:55;;;;;;;12.10;2.58;;;9.00;88.10;;;;;;5065439;28;20732;-72
2021/05/02 02:30:22;;;;;;;7.07;2.58;;;9.10;88.20;;;;;;5064931;28;20702;-71
2021/05/02 02:32:49;;;;;;;7.40;2.58;;;9.10;88.20;;;;;;5067946;28;20577;-71
2021/05/02 02:35:19;;;;;;;8.93;2.20;;;9.10;88.30;;;;;;5069511;28;20206;-71
2021/05/02 02:37:49;;;;;;;9.18;2.33;;;9.00;88.30;;;;;;5072596;28;20293;-72
2021/05/02 02:40:16;;;;;;;9.43;2.65;;;9.00;88.30;;;;;;5075090;28;20206;-72
2021/05/02 02:42:45;;;;;;;9.00;2.55;;;9.00;88.30;;;;;;5065571;28;20689;-71
2021/05/02 02:45:13;;;;;;;7.78;2.55;;;9.00;88.30;;;;;;5067511;28;20205;-72
2021/05/02 02:47:44;;;;;;;10.65;2.47;;;9.00;88.30;;;;;;5066165;28;20897;-71
2021/05/02 02:50:14;;;;;;;16.15;3.10;;;9.00;88.40;;;;;;5074276;28;20568;-72
2021/05/02 02:52:43;;;;;;;10.35;2.47;;;9.00;88.40;;;;;;5064351;28;20210;-71
2021/05/02 02:55:12;;;;;;;8.30;2.70;;;9.00;88.60;;;;;;5067109;28;20560;-72
2021/05/02 02:57:44;;;;;;;8.00;2.10;;;9.00;88.50;;;;;;5064704;28;20206;-72
2021/05/02 03:00:12;;;;;;;5.78;2.40;;;9.00;88.50;;;;;;5067127;28;20788;-72
2021/05/02 03:02:42;;;;;;;9.10;2.58;;;9.00;88.50;;;;;;5068961;28;20569;-72
2021/05/02 03:05:12;;;;;;;9.40;2.45;;;9.00;88.50;;;;;;5069382;28;20229;-72
2021/05/02 03:07:41;;;;;;;4.88;2.05;;;9.00;88.50;;;;;;5065664;28;20630;-71
2021/05/02 03:10:10;;;;;;;11.63;2.20;;;9.00;88.40;;;;;;5066719;28;20309;-72
2021/05/02 03:12:38;;;;;;;6.78;2.08;;;9.00;88.40;;;;;;5065550;28;20203;-71
2021/05/02 03:15:06;;;;;;;9.00;1.80;;;9.00;88.40;;;;;;5066434;28;20211;-72
2021/05/02 03:17:33;;;;;;;8.27;2.78;;;8.90;88.50;;;;;;5075045;28;20197;-72
2021/05/02 03:20:05;;;;;;;6.20;2.15;;;9.00;88.60;;;;;;5071193;28;20209;-71
2021/05/02 03:22:38;;;;;;;6.32;2.30;;;8.90;88.50;;;;;;5067486;28;20213;-71
2021/05/02 03:25:10;;;;;;;7.38;2.33;;;8.90;88.50;;;;;;5071549;28;20893;-70
2021/05/02 03:27:43;;;;;;;7.13;2.17;;;8.90;88.50;;;;;;5069099;28;20226;-73
2021/05/02 03:30:11;;;;;;;6.07;2.40;;;8.90;88.50;;;;;;5071009;28;20214;-73
2021/05/02 03:32:44;;;;;;;7.10;2.15;;;8.90;88.50;;;;;;5070119;28;20206;-71
2021/05/02 03:35:11;;;;;;;6.90;2.45;;;8.90;88.50;;;;;;5070984;28;20536;-72
2021/05/02 03:37:38;;;;;;;8.20;2.35;;;9.20;88.40;;;;;;5076900;28;20423;-72
2021/05/02 03:40:07;;;;;;;7.53;2.40;;;9.50;86.50;;;;;;5066970;28;20438;-72
2021/05/02 03:42:34;;;;;;;6.80;2.30;;;9.70;85.20;;;;;;5068922;28;20428;-72
2021/05/02 03:45:01;;;;;;;7.20;2.27;;;9.80;84.30;;;;;;5071278;28;20511;-70
2021/05/02 03:47:28;;;;;;;9.10;2.78;;;9.90;83.60;;;;;;5074296;28;20831;-71
2021/05/02 03:49:54;;;;;;;8.25;2.22;;;10.00;82.80;;;;;;5070909;28;20969;-72
2021/05/02 03:52:20;;;;;;;8.73;2.40;;;10.10;82.50;;;;;;5069619;28;20431;-71
2021/05/02 03:54:52;;;;;;;8.43;2.42;;;10.20;82.30;;;;;;5071868;28;20510;-71
2021/05/02 03:57:19;;;;;;;9.88;2.78;;;10.20;81.90;;;;;;5071781;28;20458;-72
2021/05/02 03:59:46;;;;;;;7.13;2.40;;;10.20;81.80;;;;;;5068266;28;20407;-70
2021/05/02 04:02:14;;;;;;;7.93;2.20;;;10.20;81.50;;;;;;5082775;28;20473;-69
2021/05/02 04:04:41;;;;;;;7.47;2.40;;;10.20;81.60;;;;;;5070727;28;20487;-71
2021/05/02 04:07:10;;;;;;;8.20;2.10;;;10.20;81.10;;;;;;5067989;28;20429;-73
2021/05/02 04:09:37;;;;;;;6.35;2.20;;;10.20;81.10;;;;;;5071815;28;20508;-73
2021/05/02 04:12:04;;;;;;;6.88;1.98;;;10.20;80.80;;;;;;5071316;28;20219;-72
2021/05/02 04:14:31;;;;;;;8.98;2.10;;;9.80;81.70;;;;;;5073071;28;20253;-72
2021/05/02 04:17:00;;;;;;;6.47;1.90;;;9.60;82.60;;;;;;5065800;28;20202;-71
2021/05/02 04:19:27;;;;;;;6.07;1.85;;;9.40;83.00;;;;;;5069162;28;20206;-72
2021/05/02 04:21:53;;;;;;;9.70;2.03;;;9.30;83.50;;;;;;5069758;28;20209;-72
2021/05/02 04:24:20;;;;;;;5.63;1.90;;;9.20;83.70;;;;;;5074809;28;20194;-71
2021/05/02 04:26:48;;;;;;;5.00;1.90;;;9.10;83.90;;;;;;5067783;28;20272;-72
2021/05/02 04:29:14;;;;;;;5.47;1.92;;;9.00;84.10;;;;;;5067701;28;20208;-71
2021/05/02 04:31:42;;;;;;;6.72;1.92;;;9.00;84.30;;;;;;5067666;28;20605;-71
2021/05/02 04:34:08;;;;;;;8.15;1.92;;;8.90;84.40;;;;;;5069792;28;20232;-70
2021/05/02 04:36:34;;;;;;;6.32;1.90;;;8.80;85.20;;;;;;5067366;28;20203;-71
2021/05/02 04:39:04;;;;;;;10.27;2.40;;;8.80;84.50;;;;;;5069831;28;20203;-70
2021/05/02 04:41:30;;;;;;;4.18;2.03;;;8.80;84.60;;;;;;5073661;28;20206;-73
2021/05/02 04:43:57;;;;;;;3.92;1.80;;;8.80;84.80;;;;;;5068654;28;20662;-73
2021/05/02 04:46:24;;;;;;;6.07;1.50;;;8.70;84.90;;;;;;5072887;28;20198;-73
2021/05/02 04:48:51;;;;;;;7.07;1.85;;;8.70;85.10;;;;;;5071918;28;20285;-71
2021/05/02 04:51:19;;;;;;;8.35;1.70;;;8.70;85.30;;;;;;5070834;28;20256;-72
2021/05/02 04:53:46;;;;;;;2.88;1.88;;;8.70;85.50;;;;;;5069254;28;20206;-72
2021/05/02 04:56:12;;;;;;;14.07;2.10;;;8.80;85.60;;;;;;5078759;28;20193;-71
2021/05/02 04:58:39;;;;;;;7.50;2.03;;;8.80;85.70;;;;;;5069621;28;20202;-71
2021/05/02 05:01:06;;;;;;;3.65;1.80;;;8.80;85.80;;;;;;5074648;28;20202;-71
2021/05/02 05:03:33;;;;;;;5.78;1.75;;;8.80;85.80;;;;;;5070809;28;20234;-70
2021/05/02 05:06:00;;;;;;;9.65;2.10;;;8.80;85.90;;;;;;5071154;28;20716;-70
2021/05/02 05:08:27;;;;;;;9.95;2.03;;;8.80;85.90;;;;;;5070868;28;20209;-70
2021/05/02 05:10:53;;;;;;;6.88;1.83;;;8.80;85.80;;;;;;5068737;28;20663;-70
2021/05/02 05:13:20;;;;;;;8.32;1.90;;;8.80;85.90;;;;;;5074071;28;20191;-72
2021/05/02 05:15:46;;;;;;;3.97;2.00;;;8.80;85.90;;;;;;5074896;28;20213;-72
2021/05/02 05:18:13;;;;;;;2.95;1.48;;;8.80;85.90;;;;;;5068878;28;20198;-72
2021/05/02 05:20:39;;;;;;;10.48;3.38;;;8.80;85.90;;;;;;5071096;28;20195;-72
2021/05/02 05:23:06;;;;;;;6.65;1.98;;;8.80;86.00;;;;;;5067945;28;20207;-72
2021/05/02 05:25:33;;;;;;;4.25;1.75;;;8.80;85.90;;;;;;5068373;28;20194;-72
2021/05/02 05:27:59;;;;;;;5.88;1.77;;;8.80;85.80;;;;;;5066562;28;20248;-71
2021/05/02 05:30:25;;;;;;;5.97;2.10;;;8.80;85.80;;;;;;5068474;28;20598;-72
2021/05/02 05:32:52;;;;;;;7.32;1.77;;;8.80;85.70;;;;;;5070800;28;20207;-71
2021/05/02 05:35:18;;;;;;;7.45;1.73;;;8.80;85.70;;;;;;5068337;28;20256;-72
2021/05/02 05:37:44;;;;;;;5.80;2.10;;;8.80;85.60;;;;;;5068078;28;20453;-72
2021/05/02 05:40:13;;;;;;;6.07;1.95;;;9.10;85.20;;;;;;5068448;28;20477;-74
2021/05/02 05:42:40;;;;;;;4.87;2.00;;;9.40;83.60;;;;;;5069543;28;20425;-72
2021/05/02 05:45:08;;;;;;;7.07;2.15;;;9.60;82.70;;;;;;5076172;28;21474;-71
2021/05/02 05:47:34;;;;;;;5.65;1.90;;;9.80;82.00;;;;;;5073851;28;20502;-72
2021/05/02 05:50:00;;;;;;;4.03;1.50;;;9.90;81.30;;;;;;5075669;28;20643;-72
2021/05/02 05:52:27;;;;;;;3.33;1.67;;;9.70;82.30;;;;;;5074623;28;20206;-70
2021/05/02 05:54:53;;;;;;;4.22;1.65;;;9.50;83.00;;;;;;5076620;28;20281;-70
2021/05/02 05:57:20;;;;;;;4.93;1.60;;;9.40;83.40;;;;;;5076829;28;20210;-71
2021/05/02 05:59:46;;;;;;;3.95;1.55;;;9.30;83.60;;;;;;5072565;28;20221;-72
2021/05/02 06:02:13;;;;;;;2.65;1.40;;;9.30;83.70;;;;;;5068968;28;20682;-70
2021/05/02 06:04:39;;;;;;;8.88;1.85;;;9.20;83.80;;;;;;5072561;28;20229;-70
2021/05/02 06:07:05;;;;;;;8.68;1.70;;;9.20;83.80;;;;;;5068913;28;20210;-73
2021/05/02 06:09:32;;;;;;;4.45;1.58;;;9.20;83.90;;;;;;5066172;28;20198;-71
2021/05/02 06:11:58;;;;;;;5.15;1.60;;;9.20;83.90;;;;;;5073523;28;20226;-72
2021/05/02 06:14:25;;;;;;;3.58;1.30;;;9.20;84.10;;;;;;5073656;28;20210;-71
2021/05/02 06:16:52;;;;;;;4.60;1.40;;;9.20;84.00;;;;;;5068711;28;20195;-73
2021/05/02 06:19:19;;;;;;;3.17;1.48;;;9.20;83.90;;;;;;5071705;28;20221;-71
2021/05/02 06:21:45;;;;;;;4.38;1.50;;;9.20;84.00;;;;;;5069043;28;20277;-71
2021/05/02 06:24:11;;;;;;;4.88;1.40;;;9.20;84.30;;;;;;5070996;28;20198;-70
2021/05/02 06:26:38;;;;;;;4.05;1.50;;;9.30;84.40;;;;;;5069563;28;20209;-69
2021/05/02 06:29:05;;;;;;;7.70;1.80;;;9.30;84.60;;;;;;5070310;28;20552;-71
2021/05/02 06:31:32;;;;;;;6.70;2.08;;;9.30;84.60;;;;;;5068576;28;20593;-71
2021/05/02 06:33:58;;;;;;;3.80;1.60;;;9.40;84.80;;;;;;5076302;28;20198;-72
2021/05/02 06:36:25;;;;;;;3.10;1.50;;;9.40;84.70;;;;;;5067376;28;20198;-71
2021/05/02 06:38:51;;;;;;;6.75;1.50;;;9.50;85.50;;;;;;5066874;28;20273;-72
2021/05/02 06:41:17;;;;;;;6.13;1.50;;;9.50;84.60;;;;;;5074133;28;20548;-74
2021/05/02 06:43:44;;;;;;;3.53;1.30;;;9.50;84.50;;;;;;5068526;28;20238;-72
2021/05/02 06:46:26;;;;;;;2.28;1.40;;;9.60;84.40;;;;;;5068541;28;20198;-72
2021/05/02 06:48:55;;;;;;;6.15;1.48;;;9.60;84.20;;;;;;5072412;28;20229;-71
2021/05/02 06:51:21;;;;;;;3.22;1.60;;;9.60;83.90;;;;;;5065489;28;20226;-71
2021/05/02 06:53:48;;;;;;;4.82;1.52;;;9.60;83.90;;;;;;5069434;28;20209;-71
2021/05/02 06:56:14;;;;;;;6.10;1.80;;;9.60;83.90;;;;;;5077423;28;20198;-71
2021/05/02 06:58:40;;;;;;;4.45;1.75;;;9.70;84.10;;;;;;5071122;28;20206;-72
2021/05/02 07:01:07;;;;;;;5.38;1.60;;;9.70;84.10;;;;;;5076151;28;20203;-71
2021/05/02 07:03:33;;;;;;;6.38;1.60;;;9.70;84.10;;;;;;5076262;28;20658;-78
2021/05/02 07:06:03;;;;;;;5.05;1.70;;;9.70;84.00;;;;;;5072045;28;20196;-72
2021/05/02 07:08:29;;;;;;;4.82;1.65;;;9.80;83.90;;;;;;5075724;28;20276;-74
2021/05/02 07:10:56;;;;;;;3.38;1.40;;;9.80;83.80;;;;;;5069094;28;20285;-72
2021/05/02 07:13:22;;;;;;;5.38;1.60;;;9.80;83.50;;;;;;5074279;28;20205;-71
2021/05/02 07:15:49;;;;;;;7.07;1.70;;;9.80;83.50;;;;;;5082765;28;20211;-72
2021/05/02 07:18:15;;;;;;;5.28;1.58;;;9.80;83.40;;;;;;5070731;28;20210;-72
2021/05/02 07:20:41;;;;;;;3.10;1.50;;;9.80;83.50;;;;;;5072306;28;20867;-73
2021/05/02 07:23:09;;;;;;;4.32;1.58;;;9.80;83.50;;;;;;5076773;28;20206;-71
2021/05/02 07:25:35;;;;;;;6.38;1.80;;;9.80;83.50;;;;;;5075776;28;20254;-71
2021/05/02 07:28:01;;;;;;;2.60;1.58;;;9.80;83.60;;;;;;5082685;28;20205;-71
2021/05/02 07:30:28;;;;;;;7.10;1.50;;;9.80;83.60;;;;;;5076206;28;20202;-72
2021/05/02 07:32:55;;;;;;;4.13;1.40;;;9.80;83.60;;;;;;5070586;28;20226;-72
2021/05/02 07:35:21;;;;;;;7.03;1.63;;;9.80;83.40;;;;;;5071313;28;20199;-72
2021/05/02 07:37:48;;;;;;;5.35;1.75;;;9.80;83.10;;;;;;5069403;28;21651;-73
2021/05/02 07:40:15;;;;;;;4.53;1.40;;;9.90;82.90;;;;;;5074349;28;20655;-71
2021/05/02 07:42:41;;;;;;;4.43;1.65;;;9.90;82.80;;;;;;5066561;28;20206;-70
2021/05/02 07:45:08;;;;;;;3.28;1.48;;;9.90;82.70;;;;;;5076235;28;20340;-73
2021/05/02 07:47:35;;;;;;;4.45;1.70;;;10.00;82.60;;;;;;5068516;28;20209;-71
2021/05/02 07:50:03;;;;;;;3.53;1.50;;;10.00;82.40;;;;;;5073509;28;20222;-72
2021/05/02 07:52:29;;;;;;;5.25;1.58;;;10.00;82.00;;;;;;5068485;28;20686;-72
2021/05/02 07:54:56;;;;;;;6.32;3.05;;;10.00;82.00;;;;;;5070198;28;20191;-72
2021/05/02 07:57:23;;;;;;;5.90;2.78;;;10.00;81.60;;;;;;5069352;28;20225;-73
2021/05/02 07:59:50;;;;;;;9.30;2.22;;;10.00;80.80;;;;;;5072500;28;20207;-73
2021/05/02 08:02:18;;;;;;;1.95;1.20;;;10.00;80.10;;;;;;5068787;28;20210;-74
2021/05/02 08:04:44;;;;;;;2.67;1.42;;;9.90;79.50;;;;;;5076538;28;21196;-72
2021/05/02 08:07:11;;;;;;;1.98;1.40;;;9.90;79.30;;;;;;5068008;28;20306;-71
2021/05/02 08:09:38;;;;;;;6.05;1.55;;;9.90;79.30;;;;;;5075711;28;20655;-71
2021/05/02 08:12:07;;;;;;;3.72;1.50;;;9.80;79.50;;;;;;5070426;28;20247;-70
2021/05/02 08:14:35;;;;;;;2.45;1.63;;;9.90;79.80;;;;;;5069242;28;20255;-72
2021/05/02 08:17:01;;;;;;;4.20;1.50;;;9.90;80.20;;;;;;5066723;28;20210;-72
2021/05/02 08:19:28;;;;;;;3.63;1.50;;;9.90;80.40;;;;;;5067566;28;20206;-71
2021/05/02 08:21:54;;;;;;;3.80;1.50;;;10.00;80.80;;;;;;5076433;28;20241;-71
2021/05/02 08:24:21;;;;;;;6.25;2.50;;;10.10;81.00;;;;;;5070084;28;20223;-70
2021/05/02 08:26:47;;;;;;;5.38;1.65;;;10.10;81.10;;;;;;5068367;28;20757;-71
2021/05/02 08:29:14;;;;;;;9.55;1.80;;;10.20;81.30;;;;;;5068708;28;20198;-73
2021/05/02 08:31:41;;;;;;;2.47;1.40;;;10.30;81.40;;;;;;5067005;28;20279;-72
2021/05/02 08:34:07;;;;;;;5.95;1.50;;;10.30;81.40;;;;;;5074253;28;20206;-73
2021/05/02 08:36:34;;;;;;;5.28;1.55;;;10.40;81.40;;;;;;5068478;28;20293;-75
2021/05/02 08:39:00;;;;;;;4.82;1.70;;;10.40;80.90;;;;;;5067164;28;20206;-72
2021/05/02 08:41:27;;;;;;;4.10;1.55;;;10.40;80.70;;;;;;5075745;28;20193;-71
2021/05/02 08:43:56;;;;;;;4.85;1.48;;;10.40;80.40;;;;;;5076136;28;20224;-71
2021/05/02 08:46:24;;;;;;;4.75;1.60;;;10.30;80.10;;;;;;5089220;28;20244;-73
2021/05/02 08:48:51;;;;;;;4.97;1.40;;;10.30;80.00;;;;;;5082980;28;20205;-71
2021/05/02 08:51:18;;;;;;;4.15;1.60;;;10.40;80.10;;;;;;5073594;28;20218;-72
2021/05/02 08:53:45;;;;;;;5.57;1.75;;;10.40;79.90;;;;;;5081798;28;20202;-73
2021/05/02 08:56:11;;;;;;;2.60;1.65;;;10.40;80.10;;;;;;5084891;28;20194;-72
2021/05/02 08:58:38;;;;;;;4.75;1.83;;;10.40;80.40;;;;;;5090172;28;20212;-72
2021/05/02 09:01:05;;;;;;;3.15;1.90;;;10.40;80.60;;;;;;5074404;28;20190;-72
2021/05/02 09:03:41;;;;;;;7.03;1.80;;;10.40;81.10;;;;;;5082992;28;20230;-72
2021/05/02 09:06:19;;;;;;;8.23;1.80;;;10.40;81.70;;;;;;5074279;28;20211;-72
2021/05/02 09:08:47;;;;;;;6.60;1.83;;;10.40;82.30;;;;;;5072464;28;20222;-72
2021/05/02 09:11:14;;;;;;;5.18;1.60;;;10.40;82.60;;;;;;5071797;28;20646;-72
2021/05/02 09:13:49;;;;;;;3.53;1.48;;;10.40;82.80;;;;;;5069994;28;20247;-72
2021/05/02 09:16:16;;;;;;;2.70;1.50;;;10.40;82.70;;;;;;5080217;28;20229;-71
2021/05/02 09:18:46;;;;;;;6.45;1.75;;;10.40;82.60;;;;;;5091415;28;20274;-73
2021/05/02 09:21:16;;;;;;;6.15;1.70;;;10.30;82.30;;;;;;5083177;28;20198;-71
2021/05/02 09:23:45;;;;;;;6.10;1.73;;;10.30;82.30;;;;;;5079357;28;20682;-71
2021/05/02 09:26:23;;;;;;;4.83;1.80;;;10.40;82.30;;;;;;5085245;28;20888;-71
2021/05/02 09:28:51;;;;;;;4.38;1.67;;;10.80;80.50;;;;;;5089402;28;20516;-72
2021/05/02 09:31:20;;;;;;;4.85;1.45;;;11.10;80.40;;;;;;5079608;28;20888;-74
2021/05/02 09:33:46;;;;;;;4.80;1.77;;;11.40;80.00;;;;;;5072317;28;20504;-72
2021/05/02 09:36:15;;;;;;;4.53;1.50;;;11.50;79.30;;;;;;5073799;28;20439;-72
2021/05/02 09:38:43;;;;;;;4.73;1.50;;;11.60;78.20;;;;;;5076546;28;20411;-71
2021/05/02 09:41:12;;;;;;;4.22;1.55;;;11.80;77.30;;;;;;5066768;28;20427;-71
2021/05/02 09:43:46;;;;;;;3.97;1.57;;;12.00;76.70;;;;;;5069340;28;20410;-72
2021/05/02 09:46:24;;;;;;;6.50;1.73;;;12.10;73.00;;;;;;5070481;28;20540;-73
2021/05/02 09:48:53;;;;;;;4.07;1.40;;;12.20;71.50;;;;;;5067906;28;20506;-75
2021/05/02 09:51:21;;;;;;;5.18;1.60;;;12.30;69.50;;;;;;5074103;28;20429;-72
2021/05/02 09:54:11;;;;;;;4.03;1.63;;;12.30;69.80;;;;;;5073580;28;20994;-75
2021/05/02 09:56:40;;;;;;;4.65;1.45;;;12.40;72.10;;;;;;5068553;28;20443;-74
2021/05/02 09:59:19;;;;;;;6.00;1.23;;;12.30;73.50;;;;;;5067800;28;20427;-72
2021/05/02 10:02:08;;;;;;;5.30;1.40;;;12.30;74.00;;;;;;5068505;28;20907;-71
2021/05/02 10:04:35;;;;;;;6.30;1.38;;;12.30;74.20;;;;;;5073934;28;20428;-72
2021/05/02 10:07:09;;;;;;;4.47;1.70;;;12.20;76.70;;;;;;5072715;28;20418;-72
2021/05/02 10:09:37;;;;;;;4.95;1.70;;;12.10;81.10;;;;;;5066876;28;20513;-73
2021/05/02 10:12:05;;;;;;;4.20;1.40;;;12.10;83.80;;;;;;5068025;28;20435;-71
2021/05/02 10:14:32;;;;;;;2.65;1.20;;;12.00;83.00;;;;;;5076381;28;20421;-73
2021/05/02 10:16:59;;;;;;;5.50;1.30;;;12.00;79.80;;;;;;5073138;28;20498;-71
2021/05/02 10:19:25;;;;;;;3.95;1.42;;;12.00;79.20;;;;;;5069276;28;20415;-74
2021/05/02 10:21:52;;;;;;;3.63;1.15;;;11.90;75.70;;;;;;5081391;28;20434;-72
2021/05/02 10:24:18;;;;;;;2.70;1.10;;;11.90;71.40;;;;;;5069227;28;20470;-71
2021/05/02 10:26:45;;;;;;;1.77;0.90;;;11.90;70.10;;;;;;5065538;28;20419;-73
2021/05/02 10:29:12;;;;;;;3.33;1.10;;;11.90;68.20;;;;;;5069299;28;20472;-71
2021/05/02 10:31:42;;;;;;;2.90;1.10;;;11.90;68.90;;;;;;5081931;28;20428;-73
2021/05/02 10:34:26;;;;;;;4.28;1.42;;;11.90;69.50;;;;;;5073056;28;20814;-72
2021/05/02 10:37:32;;;;;;;2.80;1.15;;;11.90;71.80;;;;;;5068356;28;20419;-71
2021/05/02 10:40:01;;;;;;;5.40;1.60;;;12.00;70.90;;;;;;5066952;28;20427;-73
2021/05/02 10:42:51;;;;;;;3.20;1.00;;;12.10;70.70;;;;;;5070357;28;20434;-74
2021/05/02 10:45:44;;;;;;;3.03;1.30;;;12.20;70.20;;;;;;5067267;28;20436;-74
2021/05/02 10:48:35;;;;;;;3.28;1.38;;;12.20;70.70;;;;;;5071532;28;20889;-70
2021/05/02 10:51:02;;;;;;;3.33;1.30;;;12.30;69.80;;;;;;5069869;28;20423;-73
2021/05/02 10:53:28;;;;;;;3.08;1.52;;;12.40;71.50;;;;;;5075043;28;20425;-71
2021/05/02 10:55:58;;;;;;;4.35;1.90;;;12.50;73.10;;;;;;5068281;28;20418;-73
2021/05/02 10:58:27;;;;;;;2.43;1.03;;;12.60;70.90;;;;;;5068093;28;20426;-70
2021/05/02 11:00:57;;;;;;;2.70;1.00;;;12.80;69.80;;;;;;5072628;28;20472;-74
2021/05/02 11:03:53;;;;;;;2.80;1.10;;;12.90;64.80;;;;;;5075524;28;20423;-72
2021/05/02 11:06:54;;;;;;;2.58;1.05;;;13.00;64.50;;;;;;5077699;28;20475;-70
2021/05/02 11:09:23;;;;;;;5.20;1.27;;;13.20;65.50;;;;;;5073386;28;20446;-72
2021/05/02 11:11:50;;;;;;;4.93;1.20;;;13.30;66.60;;;;;;5074640;28;20902;-73
2021/05/02 11:14:37;;;;;;;6.00;1.30;;;13.50;67.80;;;;;;5088266;28;20429;-76
2021/05/02 11:17:20;;;;;;;4.37;1.30;;;13.50;66.80;;;;;;5076312;28;20818;-71
2021/05/02 11:19:47;;;;;;;4.65;1.40;;;13.50;67.20;;;;;;5075230;28;20417;-74
2021/05/02 11:22:15;;;;;;;4.65;1.77;;;13.50;67.30;;;;;;5071326;28;20402;-74
2021/05/02 11:25:10;;;;;;;23.65;1.50;;;13.50;66.10;;;;;;5069061;28;20419;-71
2021/05/02 11:27:55;;;;;;;3.63;1.40;;;13.50;64.50;;;;;;5074608;28;20423;-74
2021/05/02 11:30:26;;;;;;;2.53;1.13;;;13.50;60.10;;;;;;5081226;28;20512;-73
2021/05/02 11:32:56;;;;;;;1.48;0.90;;;13.40;60.60;;;;;;5078510;28;20504;-71
2021/05/02 11:35:53;;;;;;;2.95;1.00;;;13.40;61.50;;;;;;5066202;28;20427;-73
2021/05/02 11:38:21;;;;;;;2.70;1.00;;;13.40;61.50;;;;;;5081380;28;20958;-73
2021/05/02 11:40:56;;;;;;;4.07;0.98;;;13.50;61.80;;;;;;5076812;28;20414;-73
2021/05/02 11:43:26;;;;;;;4.40;2.20;;;13.60;60.40;;;;;;5064912;28;20435;-72
2021/05/02 11:45:55;;;;;;;2.63;0.90;;;13.60;59.40;;;;;;5064751;28;20999;-72
2021/05/02 11:48:27;;;;;;;3.67;1.83;;;13.60;58.30;;;;;;5068388;28;20443;-73
2021/05/02 11:50:57;;;;;;;3.60;1.10;;;13.60;58.80;;;;;;5077003;28;20757;-73
2021/05/02 11:53:42;;;;;;;3.17;1.07;;;13.70;59.60;;;;;;5065695;28;20474;-74
2021/05/02 11:56:14;;;;;;;2.25;1.15;;;13.70;61.20;;;;;;5078549;28;20478;-72
2021/05/02 11:58:41;;;;;;;2.25;0.90;;;13.80;62.40;;;;;;5067257;28;20438;-72
2021/05/02 12:01:18;;;;;;;2.97;1.00;;;13.90;63.50;;;;;;5070310;28;20438;-71
2021/05/02 12:03:45;;;;;;;5.20;1.30;;;14.00;60.50;;;;;;5072181;28;20434;-72
2021/05/02 12:06:30;;;;;;;3.10;1.00;;;14.10;61.60;;;;;;5070318;28;20430;-71
2021/05/02 12:08:57;;;;;;;2.45;1.00;;;14.20;60.50;;;;;;5069057;28;20420;-72
2021/05/02 12:11:24;;;;;;;3.75;0.90;;;14.20;59.60;;;;;;5067542;28;20420;-71
2021/05/02 12:13:54;;;;;;;3.50;1.70;;;14.20;62.00;;;;;;5065447;28;20490;-72
2021/05/02 12:16:23;;;;;;;2.20;0.80;;;14.30;60.60;;;;;;5066345;28;20423;-73
2021/05/02 12:18:54;;;;;;;2.45;0.90;;;14.40;59.10;;;;;;5067575;28;20489;-71
2021/05/02 12:21:27;;;;;;;3.13;1.08;;;14.40;58.20;;;;;;5069744;28;20777;-73
2021/05/02 12:23:55;;;;;;;3.07;1.10;;;14.40;58.20;;;;;;5067498;28;20432;-71
2021/05/02 12:26:22;;;;;;;3.47;1.10;;;14.40;59.30;;;;;;5069345;28;20830;-72
2021/05/02 12:28:50;;;;;;;3.03;1.20;;;14.40;60.20;;;;;;5066416;28;20946;-72
2021/05/02 12:31:17;;;;;;;2.50;1.10;;;14.50;57.70;;;;;;5068423;28;20415;-72
2021/05/02 12:33:45;;;;;;;2.65;1.13;;;14.70;57.50;;;;;;5065223;28;20826;-72
2021/05/02 12:36:13;;;;;;;3.50;1.30;;;14.80;58.10;;;;;;5074613;28;20869;-72
2021/05/02 12:38:41;;;;;;;4.82;1.77;;;14.80;58.30;;;;;;5070471;28;20449;-72
2021/05/02 12:41:17;;;;;;;1.85;1.20;;;14.70;57.50;;;;;;5068986;28;20814;-71
2021/05/02 12:43:48;;;;;;;2.23;1.00;;;14.80;57.50;;;;;;5065599;28;20434;-72
2021/05/02 12:46:36;;;;;;;3.95;1.10;;;14.80;54.60;;;;;;5066098;28;20782;-71
2021/05/02 12:49:12;;;;;;;4.00;1.00;;;14.90;55.40;;;;;;5065992;28;20431;-71
2021/05/02 12:51:38;;;;;;;1.92;0.90;;;15.00;55.20;;;;;;5060440;28;20449;-71
2021/05/02 12:54:10;;;;;;;2.03;1.00;;;15.30;53.20;;;;;;5063706;28;20206;-73
2021/05/02 12:56:37;;;;;;;1.70;0.90;;;15.10;54.70;;;;;;5064717;28;20569;-73
2021/05/02 12:59:25;;;;;;;3.42;0.70;;;15.00;55.60;;;;;;5076849;28;20259;-72
2021/05/02 13:02:01;;;;;;;3.25;0.85;;;15.00;56.30;;;;;;5068375;28;20670;-74